Spirit Of New York — WCW9332 — position and weather

sailwx.info

Track history (hours):
 
Tides and Currents Weather Stations Pressure Air Temp Water Temp Dewpoint Dewpoint Depression Visibility Wind Speed Wind Dir Waves Ship Positions

Spirit Of New York

Owner: SPIRIT CRUISES LLC, NEW YORK, NY. More information available from US FCC via Universal Licensing System and Coast Guard Vessel Documentation Center.

Last reported at 2016-May-30 01:24 UTC. Time now 2016-May-30 12:36 UTC.
Position N 40°45' W 074°01'.

Length 62 m.

Type: Passenger vessel. MMSI: 338897000.

Date/timePositionNaut miles runAvg speedWind from/ knotsBaromVisibWave heightAir tempDewpointWater temp
2016-May-30 01:24N 40°45' W 074°01'4 4.6
2016-May-30 00:33N 40°41' W 074°02'4 3.8
2016-May-29 23:33N 40°45' W 074°01'0 0.3
2016-May-29 22:33N 40°45' W 074°01'0 0.0
2016-May-29 21:33N 40°45' W 074°01'1 0.2
2016-May-29 17:33N 40°44' W 074°01'1 0.8
2016-May-29 16:33N 40°45' W 074°01'0 0.3
2016-May-29 15:32N 40°45' W 074°01'0 0.0
2016-May-29 05:28N 40°45' W 074°01'4 3.9
2016-May-29 04:33N 40°42' W 074°02'4 3.6
2016-May-29 03:34N 40°45' W 074°01'0 0.0
2016-May-29 02:32N 40°45' W 074°01'1 1.1
2016-May-29 01:33N 40°44' W 074°01'2 2.0
2016-May-29 00:33N 40°42' W 074°01'3 3.5
2016-May-28 23:34N 40°45' W 074°01'1 0.5
2016-May-28 22:33N 40°45' W 074°01'0 0.0
2016-May-28 21:33N 40°45' W 074°01'0 0.0
2016-May-28 20:34N 40°45' W 074°01'0 0.0
2016-May-28 19:34N 40°45' W 074°01'0 0.0
2016-May-28 18:34N 40°45' W 074°01'0 0.5
2016-May-28 17:34N 40°45' W 074°01'0 0.2
2016-May-28 16:34N 40°45' W 074°01'0 0.4
2016-May-28 15:34N 40°45' W 074°01'0 0.0
2016-May-28 14:34N 40°45' W 074°01'0 0.0
2016-May-28 01:27N 40°45' W 074°01'3 3.9
2016-May-28 00:33N 40°42' W 074°02'3 3.5
2016-May-27 23:33N 40°45' W 074°01'0 0.2
2016-May-27 22:33N 40°45' W 074°01'0 0.0
2016-May-27 21:33N 40°45' W 074°01'0 0.0
2016-May-27 20:22N 40°45' W 074°01'0 0.0
2016-May-27 19:33N 40°45' W 074°01'0 0.0
2016-May-27 18:33N 40°45' W 074°01'0 0.5
2016-May-27 17:33N 40°45' W 074°01'0 0.1
2016-May-27 16:33N 40°45' W 074°01'0 0.4
2016-May-27 15:33N 40°45' W 074°01'0 0.0
2016-May-27 03:12N 40°45' W 074°01'0 0.0
2016-May-27 02:34N 40°45' W 074°01'0 0.0
2016-May-27 01:34N 40°45' W 074°01'3 2.9
2016-May-27 00:34N 40°42' W 074°02'4 3.7
2016-May-26 23:34N 40°46' W 074°01'1 0.9
2016-May-26 22:33N 40°45' W 074°01'0 0.0
2016-May-26 21:33N 40°45' W 074°01'0 0.0
2016-May-26 20:34N 40°45' W 074°01'0 0.0
2016-May-26 19:33N 40°45' W 074°01'0 0.0
2016-May-26 18:34N 40°45' W 074°01'2 2.0
2016-May-26 17:33N 40°43' W 074°01'1 1.3
2016-May-26 16:34N 40°44' W 074°01'1 0.7
2016-May-26 15:34N 40°45' W 074°01'0 0.0
2016-May-26 01:22N 40°45' W 074°01'4 4.7
2016-May-26 00:34N 40°41' W 074°02'5 4.9
2016-May-25 23:32N 40°46' W 074°00'4 0.7
2016-May-25 17:34N 40°42' W 074°01'2 1.6
2016-May-25 16:33N 40°43' W 074°01'1 0.1
2016-May-25 01:23N 40°45' W 074°01'4 4.9
2016-May-25 00:34N 40°41' W 074°03'3 2.6
2016-May-24 23:34N 40°44' W 074°01'1 0.1
2016-May-24 17:33N 40°44' W 074°01'2 2.3
2016-May-24 16:34N 40°42' W 074°01'3 0.2
2016-May-24 01:32N 40°45' W 074°01'4 4.0
2016-May-24 00:33N 40°41' W 074°02'3 2.5
2016-May-23 23:33N 40°44' W 074°01'1 0.1
2016-May-23 01:32N 40°45' W 074°01'4 4.0
2016-May-23 00:33N 40°41' W 074°03'4 4.3
2016-May-22 23:33N 40°45' W 074°01'1 0.6
2016-May-22 22:33N 40°45' W 074°01'0 0.0
2016-May-22 21:33N 40°45' W 074°01'1 0.2
2016-May-22 17:33N 40°44' W 074°01'1 1.3
2016-May-22 16:33N 40°43' W 074°01'2 0.1
2016-May-22 01:33N 40°44' W 074°01'2 2.3
2016-May-22 00:33N 40°42' W 073°59'2 2.4
2016-May-21 23:33N 40°45' W 074°01'0 0.0
2016-May-21 17:33N 40°44' W 074°01'2 1.9
2016-May-21 16:33N 40°42' W 074°02'2 0.7
2016-May-21 13:34N 40°44' W 074°01'1 0.6
2016-May-21 12:33N 40°45' W 074°01'0 0.0
2016-May-21 01:19N 40°45' W 074°01'3 4.0
2016-May-21 00:33N 40°42' W 074°01'3 2.8
2016-May-20 23:33N 40°45' W 074°01'1 0.1
2016-May-20 17:33N 40°44' W 074°01'2 1.9
2016-May-20 16:33N 40°42' W 073°60'  
Track history (hours):
 
Tides and Currents Weather Stations Pressure Air Temp Water Temp Dewpoint Dewpoint Depression Visibility Wind Speed Wind Dir Waves Ship Positions

Spirit Of New York

Owner: SPIRIT CRUISES LLC, NEW YORK, NY. More information available from US FCC via Universal Licensing System and Coast Guard Vessel Documentation Center.

Last reported at 2016-May-30 01:24 UTC. Time now 2016-May-30 12:36 UTC.
Position N 40°45' W 074°01'.

Length 62 m.

Type: Passenger vessel. MMSI: 338897000.

Date/timePositionNaut miles runAvg speedWind from/ knotsBaromVisibWave heightAir tempDewpointWater temp
2016-May-30 01:24N 40°45' W 074°01'4 4.6
2016-May-30 00:33N 40°41' W 074°02'4 3.8
2016-May-29 23:33N 40°45' W 074°01'0 0.3
2016-May-29 22:33N 40°45' W 074°01'0 0.0
2016-May-29 21:33N 40°45' W 074°01'1 0.2
2016-May-29 17:33N 40°44' W 074°01'1 0.8
2016-May-29 16:33N 40°45' W 074°01'0 0.3
2016-May-29 15:32N 40°45' W 074°01'0 0.0
2016-May-29 05:28N 40°45' W 074°01'4 3.9
2016-May-29 04:33N 40°42' W 074°02'4 3.6
2016-May-29 03:34N 40°45' W 074°01'0 0.0
2016-May-29 02:32N 40°45' W 074°01'1 1.1
2016-May-29 01:33N 40°44' W 074°01'2 2.0
2016-May-29 00:33N 40°42' W 074°01'3 3.5
2016-May-28 23:34N 40°45' W 074°01'1 0.5
2016-May-28 22:33N 40°45' W 074°01'0 0.0
2016-May-28 21:33N 40°45' W 074°01'0 0.0
2016-May-28 20:34N 40°45' W 074°01'0 0.0
2016-May-28 19:34N 40°45' W 074°01'0 0.0
2016-May-28 18:34N 40°45' W 074°01'0 0.5
2016-May-28 17:34N 40°45' W 074°01'0 0.2
2016-May-28 16:34N 40°45' W 074°01'0 0.4
2016-May-28 15:34N 40°45' W 074°01'0 0.0
2016-May-28 14:34N 40°45' W 074°01'0 0.0
2016-May-28 01:27N 40°45' W 074°01'3 3.9
2016-May-28 00:33N 40°42' W 074°02'3 3.5
2016-May-27 23:33N 40°45' W 074°01'0 0.2
2016-May-27 22:33N 40°45' W 074°01'0 0.0
2016-May-27 21:33N 40°45' W 074°01'0 0.0
2016-May-27 20:22N 40°45' W 074°01'0 0.0
2016-May-27 19:33N 40°45' W 074°01'0 0.0
2016-May-27 18:33N 40°45' W 074°01'0 0.5
2016-May-27 17:33N 40°45' W 074°01'0 0.1
2016-May-27 16:33N 40°45' W 074°01'0 0.4
2016-May-27 15:33N 40°45' W 074°01'0 0.0
2016-May-27 03:12N 40°45' W 074°01'0 0.0
2016-May-27 02:34N 40°45' W 074°01'0 0.0
2016-May-27 01:34N 40°45' W 074°01'3 2.9
2016-May-27 00:34N 40°42' W 074°02'4 3.7
2016-May-26 23:34N 40°46' W 074°01'1 0.9
2016-May-26 22:33N 40°45' W 074°01'0 0.0
2016-May-26 21:33N 40°45' W 074°01'0 0.0
2016-May-26 20:34N 40°45' W 074°01'0 0.0
2016-May-26 19:33N 40°45' W 074°01'0 0.0
2016-May-26 18:34N 40°45' W 074°01'2 2.0
2016-May-26 17:33N 40°43' W 074°01'1 1.3
2016-May-26 16:34N 40°44' W 074°01'1 0.7
2016-May-26 15:34N 40°45' W 074°01'0 0.0
2016-May-26 01:22N 40°45' W 074°01'4 4.7
2016-May-26 00:34N 40°41' W 074°02'5 4.9
2016-May-25 23:32N 40°46' W 074°00'4 0.7
2016-May-25 17:34N 40°42' W 074°01'2 1.6
2016-May-25 16:33N 40°43' W 074°01'1 0.1
2016-May-25 01:23N 40°45' W 074°01'4 4.9
2016-May-25 00:34N 40°41' W 074°03'3 2.6
2016-May-24 23:34N 40°44' W 074°01'1 0.1
2016-May-24 17:33N 40°44' W 074°01'2 2.3
2016-May-24 16:34N 40°42' W 074°01'3 0.2
2016-May-24 01:32N 40°45' W 074°01'4 4.0
2016-May-24 00:33N 40°41' W 074°02'3 2.5
2016-May-23 23:33N 40°44' W 074°01'1 0.1
2016-May-23 01:32N 40°45' W 074°01'4 4.0
2016-May-23 00:33N 40°41' W 074°03'4 4.3
2016-May-22 23:33N 40°45' W 074°01'1 0.6
2016-May-22 22:33N 40°45' W 074°01'0 0.0
2016-May-22 21:33N 40°45' W 074°01'1 0.2
2016-May-22 17:33N 40°44' W 074°01'1 1.3
2016-May-22 16:33N 40°43' W 074°01'2 0.1
2016-May-22 01:33N 40°44' W 074°01'2 2.3
2016-May-22 00:33N 40°42' W 073°59'2 2.4
2016-May-21 23:33N 40°45' W 074°01'0 0.0
2016-May-21 17:33N 40°44' W 074°01'2 1.9
2016-May-21 16:33N 40°42' W 074°02'2 0.7
2016-May-21 13:34N 40°44' W 074°01'1 0.6
2016-May-21 12:33N 40°45' W 074°01'0 0.0
2016-May-21 01:19N 40°45' W 074°01'3 4.0
2016-May-21 00:33N 40°42' W 074°01'3 2.8
2016-May-20 23:33N 40°45' W 074°01'1 0.1
2016-May-20 17:33N 40°44' W 074°01'2 1.9
2016-May-20 16:33N 40°42' W 073°60'  

Dump ship's entire track history